Thomson Spirit — 9HA2336 — position and weather

sailwx.info

Track history (hours):
 
Tides and Currents Weather Stations Pressure Air Temp Water Temp Dewpoint Dewpoint Depression Visibility Wind Speed Wind Dir Waves Ship Positions

Thomson Spirit

Last reported at 2016-Apr-27 21:33 UTC. Time now 2016-Apr-29 12:10 UTC.
Position N 34°36' E 032°39'.

Length 214 m; draft 7.8 m.

Type: Passenger vessel. MMSI: 248368000.

Date/timePositionNaut miles runAvg speedWind from/ knotsBaromVisibWave heightAir tempDewpointWater temp
2016-Apr-27 21:33N 34°36' E 032°39'1313.0
2016-Apr-27 20:33N 34°32' E 032°54'9 9.3
2016-Apr-27 19:33N 34°36' E 033°04'4 3.9
2016-Apr-27 18:31N 34°39' E 033°01'0 0.0
2016-Apr-27 17:32N 34°39' E 033°01'0 0.0
2016-Apr-27 16:32N 34°39' E 033°01'0 0.0
2016-Apr-27 15:32N 34°39' E 033°01'0 0.0
2016-Apr-27 14:32N 34°39' E 033°01'0 0.0
2016-Apr-27 13:32N 34°39' E 033°01'0 0.0
2016-Apr-27 12:32N 34°39' E 033°01'0 0.0
2016-Apr-27 11:31N 34°39' E 033°01'0 0.0
2016-Apr-27 10:31N 34°39' E 033°01'0 0.0
2016-Apr-27 09:31N 34°39' E 033°01'0 0.0
2016-Apr-27 08:32N 34°39' E 033°01'0 0.0
2016-Apr-27 07:31N 34°39' E 033°01'0 0.0
2016-Apr-27 06:32N 34°39' E 033°01'0 0.0
2016-Apr-27 05:31N 34°39' E 033°01'0 0.0
2016-Apr-27 04:32N 34°39' E 033°01'0 0.0
2016-Apr-27 03:31N 34°39' E 033°01'6 6.1
2016-Apr-27 02:33N 34°34' E 033°04'1111.2
2016-Apr-27 01:34N 34°31' E 032°51'1714.9
2016-Apr-27 00:24N 34°38' E 032°32'365 7.0
2016-Apr-24 20:33N 37°25' E 025°51'17 8.7
2016-Apr-24 18:33N 37°21' E 025°30'8 8.5
2016-Apr-24 17:33N 37°19' E 025°19'9 8.5
2016-Apr-24 16:33N 37°17' E 025°09'8 7.7
2016-Apr-24 15:33N 37°25' E 025°08'7 6.6
2016-Apr-24 14:33N 37°28' E 025°16'3 2.7
2016-Apr-24 13:30N 37°28' E 025°19'0 0.0
2016-Apr-24 12:33N 37°28' E 025°19'0 0.0
2016-Apr-24 11:33N 37°28' E 025°19'0 0.0
2016-Apr-24 10:33N 37°28' E 025°19'0 0.0
2016-Apr-24 09:33N 37°28' E 025°19'0 0.0
2016-Apr-24 08:33N 37°28' E 025°19'0 0.0
2016-Apr-24 07:33N 37°28' E 025°19'0 0.0
2016-Apr-24 06:32N 37°28' E 025°19'0 0.0
2016-Apr-24 05:23N 37°28' E 025°19'0 0.0
2016-Apr-24 04:33N 37°28' E 025°19'5 5.4
2016-Apr-24 03:33N 37°27' E 025°13'1414.1
2016-Apr-24 02:33N 37°20' E 024°57'52 7.2
2016-Apr-23 19:19N 37°31' E 023°54'5 7.1
2016-Apr-23 18:33N 37°35' E 023°48'8 7.6
2016-Apr-23 17:32N 37°41' E 023°42'7 7.6
2016-Apr-23 16:34N 37°47' E 023°38'9 8.6
2016-Apr-23 15:34N 37°56' E 023°37'1 1.1
2016-Apr-23 14:31N 37°56' E 023°38'0 0.0
2016-Apr-23 13:32N 37°56' E 023°38'0 0.0
2016-Apr-23 12:32N 37°56' E 023°38'0 0.0
2016-Apr-23 11:29N 37°56' E 023°38'0 0.0
2016-Apr-23 10:29N 37°56' E 023°38'0 0.0
2016-Apr-23 09:31N 37°56' E 023°38'0 0.0
2016-Apr-23 08:29N 37°56' E 023°38'0 0.0
2016-Apr-23 07:32N 37°56' E 023°38'0 0.0
2016-Apr-23 06:31N 37°56' E 023°38'0 0.0
2016-Apr-23 05:31N 37°56' E 023°38'0 0.0
2016-Apr-23 04:31N 37°56' E 023°38'0 0.2
2016-Apr-23 03:34N 37°56' E 023°38'9 9.0
2016-Apr-23 02:34N 37°48' E 023°41'1212.3
2016-Apr-23 01:34N 37°36' E 023°47'1413.5
2016-Apr-23 00:33N 37°24' E 023°53'1313.4
2016-Apr-22 23:33N 37°11' E 023°59'1313.4
2016-Apr-22 22:33N 36°59' E 024°05'1313.2
2016-Apr-22 21:33N 36°47' E 024°11'431 9.0
2016-Apr-20 21:31N 34°33' E 032°36'1313.1
2016-Apr-20 20:33N 34°31' E 032°51'1111.4
2016-Apr-20 19:33N 34°34' E 033°04'6 5.6
2016-Apr-20 18:32N 34°39' E 033°01'0 0.0
2016-Apr-20 17:31N 34°39' E 033°01'0 0.0
2016-Apr-20 16:31N 34°39' E 033°01'0 0.0
2016-Apr-20 15:31N 34°39' E 033°01'0 0.0
2016-Apr-20 14:32N 34°39' E 033°01'0 0.0
2016-Apr-20 13:32N 34°39' E 033°01'0 0.0
2016-Apr-20 12:32N 34°39' E 033°01'0 0.0
2016-Apr-20 11:28N 34°39' E 033°01'0 0.0
2016-Apr-20 10:32N 34°39' E 033°01'0 0.0
2016-Apr-20 09:32N 34°39' E 033°01'0 0.0
2016-Apr-20 08:32N 34°39' E 033°01'0 0.0
2016-Apr-20 07:32N 34°39' E 033°01'0 0.0
2016-Apr-20 06:31N 34°39' E 033°01'0 0.0
2016-Apr-20 05:31N 34°39' E 033°01'0 0.0
2016-Apr-20 04:32N 34°39' E 033°01'1 0.5
2016-Apr-20 03:33N 34°39' E 033°02'1010.5
2016-Apr-20 02:33N 34°36' E 033°14'1211.9
2016-Apr-20 01:33N 34°31' E 033°27'1111.5
2016-Apr-20 00:33N 34°27' E 033°40'2511.5
2016-Apr-19 22:23N 34°17' E 034°08'1011.5
2016-Apr-19 21:29N 34°14' E 034°20'2311.8
2016-Apr-19 19:33N 34°06' E 034°45'1211.9
2016-Apr-19 18:33N 34°00' E 034°58'1312.7
2016-Apr-19 17:33N 33°56' E 035°13'15 2.6
2016-Apr-19 11:32N 33°54' E 035°31'1 0.2
2016-Apr-19 02:33N 33°55' E 035°32'1211.7
2016-Apr-19 01:33N 33°55' E 035°18'1212.0
2016-Apr-19 00:34N 34°06' E 035°11'1514.6
2016-Apr-18 23:33N 34°20' E 035°08'1616.2
2016-Apr-18 22:33N 34°36' E 035°06'1716.6
2016-Apr-18 21:34N 34°53' E 035°02'1716.3
2016-Apr-18 20:32N 35°09' E 034°59'5316.0
2016-Apr-18 17:14N 36°01' E 034°49'1115.8
2016-Apr-18 16:33N 36°12' E 034°47'1715.8
2016-Apr-18 15:28N 36°29' E 034°43'19 8.9
2016-Apr-18 13:16N 36°48' E 034°38'0 0.0
2016-Apr-18 12:33N 36°48' E 034°38'0 0.0
2016-Apr-18 11:23N 36°48' E 034°38'0 0.0
2016-Apr-18 07:22N 36°48' E 034°38'  
Track history (hours):
 
Tides and Currents Weather Stations Pressure Air Temp Water Temp Dewpoint Dewpoint Depression Visibility Wind Speed Wind Dir Waves Ship Positions

Thomson Spirit

Last reported at 2016-Apr-27 21:33 UTC. Time now 2016-Apr-29 12:10 UTC.
Position N 34°36' E 032°39'.

Length 214 m; draft 7.8 m.

Type: Passenger vessel. MMSI: 248368000.

Date/timePositionNaut miles runAvg speedWind from/ knotsBaromVisibWave heightAir tempDewpointWater temp
2016-Apr-27 21:33N 34°36' E 032°39'1313.0
2016-Apr-27 20:33N 34°32' E 032°54'9 9.3
2016-Apr-27 19:33N 34°36' E 033°04'4 3.9
2016-Apr-27 18:31N 34°39' E 033°01'0 0.0
2016-Apr-27 17:32N 34°39' E 033°01'0 0.0
2016-Apr-27 16:32N 34°39' E 033°01'0 0.0
2016-Apr-27 15:32N 34°39' E 033°01'0 0.0
2016-Apr-27 14:32N 34°39' E 033°01'0 0.0
2016-Apr-27 13:32N 34°39' E 033°01'0 0.0
2016-Apr-27 12:32N 34°39' E 033°01'0 0.0
2016-Apr-27 11:31N 34°39' E 033°01'0 0.0
2016-Apr-27 10:31N 34°39' E 033°01'0 0.0
2016-Apr-27 09:31N 34°39' E 033°01'0 0.0
2016-Apr-27 08:32N 34°39' E 033°01'0 0.0
2016-Apr-27 07:31N 34°39' E 033°01'0 0.0
2016-Apr-27 06:32N 34°39' E 033°01'0 0.0
2016-Apr-27 05:31N 34°39' E 033°01'0 0.0
2016-Apr-27 04:32N 34°39' E 033°01'0 0.0
2016-Apr-27 03:31N 34°39' E 033°01'6 6.1
2016-Apr-27 02:33N 34°34' E 033°04'1111.2
2016-Apr-27 01:34N 34°31' E 032°51'1714.9
2016-Apr-27 00:24N 34°38' E 032°32'365 7.0
2016-Apr-24 20:33N 37°25' E 025°51'17 8.7
2016-Apr-24 18:33N 37°21' E 025°30'8 8.5
2016-Apr-24 17:33N 37°19' E 025°19'9 8.5
2016-Apr-24 16:33N 37°17' E 025°09'8 7.7
2016-Apr-24 15:33N 37°25' E 025°08'7 6.6
2016-Apr-24 14:33N 37°28' E 025°16'3 2.7
2016-Apr-24 13:30N 37°28' E 025°19'0 0.0
2016-Apr-24 12:33N 37°28' E 025°19'0 0.0
2016-Apr-24 11:33N 37°28' E 025°19'0 0.0
2016-Apr-24 10:33N 37°28' E 025°19'0 0.0
2016-Apr-24 09:33N 37°28' E 025°19'0 0.0
2016-Apr-24 08:33N 37°28' E 025°19'0 0.0
2016-Apr-24 07:33N 37°28' E 025°19'0 0.0
2016-Apr-24 06:32N 37°28' E 025°19'0 0.0
2016-Apr-24 05:23N 37°28' E 025°19'0 0.0
2016-Apr-24 04:33N 37°28' E 025°19'5 5.4
2016-Apr-24 03:33N 37°27' E 025°13'1414.1
2016-Apr-24 02:33N 37°20' E 024°57'52 7.2
2016-Apr-23 19:19N 37°31' E 023°54'5 7.1
2016-Apr-23 18:33N 37°35' E 023°48'8 7.6
2016-Apr-23 17:32N 37°41' E 023°42'7 7.6
2016-Apr-23 16:34N 37°47' E 023°38'9 8.6
2016-Apr-23 15:34N 37°56' E 023°37'1 1.1
2016-Apr-23 14:31N 37°56' E 023°38'0 0.0
2016-Apr-23 13:32N 37°56' E 023°38'0 0.0
2016-Apr-23 12:32N 37°56' E 023°38'0 0.0
2016-Apr-23 11:29N 37°56' E 023°38'0 0.0
2016-Apr-23 10:29N 37°56' E 023°38'0 0.0
2016-Apr-23 09:31N 37°56' E 023°38'0 0.0
2016-Apr-23 08:29N 37°56' E 023°38'0 0.0
2016-Apr-23 07:32N 37°56' E 023°38'0 0.0
2016-Apr-23 06:31N 37°56' E 023°38'0 0.0
2016-Apr-23 05:31N 37°56' E 023°38'0 0.0
2016-Apr-23 04:31N 37°56' E 023°38'0 0.2
2016-Apr-23 03:34N 37°56' E 023°38'9 9.0
2016-Apr-23 02:34N 37°48' E 023°41'1212.3
2016-Apr-23 01:34N 37°36' E 023°47'1413.5
2016-Apr-23 00:33N 37°24' E 023°53'1313.4
2016-Apr-22 23:33N 37°11' E 023°59'1313.4
2016-Apr-22 22:33N 36°59' E 024°05'1313.2
2016-Apr-22 21:33N 36°47' E 024°11'431 9.0
2016-Apr-20 21:31N 34°33' E 032°36'1313.1
2016-Apr-20 20:33N 34°31' E 032°51'1111.4
2016-Apr-20 19:33N 34°34' E 033°04'6 5.6
2016-Apr-20 18:32N 34°39' E 033°01'0 0.0
2016-Apr-20 17:31N 34°39' E 033°01'0 0.0
2016-Apr-20 16:31N 34°39' E 033°01'0 0.0
2016-Apr-20 15:31N 34°39' E 033°01'0 0.0
2016-Apr-20 14:32N 34°39' E 033°01'0 0.0
2016-Apr-20 13:32N 34°39' E 033°01'0 0.0
2016-Apr-20 12:32N 34°39' E 033°01'0 0.0
2016-Apr-20 11:28N 34°39' E 033°01'0 0.0
2016-Apr-20 10:32N 34°39' E 033°01'0 0.0
2016-Apr-20 09:32N 34°39' E 033°01'0 0.0
2016-Apr-20 08:32N 34°39' E 033°01'0 0.0
2016-Apr-20 07:32N 34°39' E 033°01'0 0.0
2016-Apr-20 06:31N 34°39' E 033°01'0 0.0
2016-Apr-20 05:31N 34°39' E 033°01'0 0.0
2016-Apr-20 04:32N 34°39' E 033°01'1 0.5
2016-Apr-20 03:33N 34°39' E 033°02'1010.5
2016-Apr-20 02:33N 34°36' E 033°14'1211.9
2016-Apr-20 01:33N 34°31' E 033°27'1111.5
2016-Apr-20 00:33N 34°27' E 033°40'2511.5
2016-Apr-19 22:23N 34°17' E 034°08'1011.5
2016-Apr-19 21:29N 34°14' E 034°20'2311.8
2016-Apr-19 19:33N 34°06' E 034°45'1211.9
2016-Apr-19 18:33N 34°00' E 034°58'1312.7
2016-Apr-19 17:33N 33°56' E 035°13'15 2.6
2016-Apr-19 11:32N 33°54' E 035°31'1 0.2
2016-Apr-19 02:33N 33°55' E 035°32'1211.7
2016-Apr-19 01:33N 33°55' E 035°18'1212.0
2016-Apr-19 00:34N 34°06' E 035°11'1514.6
2016-Apr-18 23:33N 34°20' E 035°08'1616.2
2016-Apr-18 22:33N 34°36' E 035°06'1716.6
2016-Apr-18 21:34N 34°53' E 035°02'1716.3
2016-Apr-18 20:32N 35°09' E 034°59'5316.0
2016-Apr-18 17:14N 36°01' E 034°49'1115.8
2016-Apr-18 16:33N 36°12' E 034°47'1715.8
2016-Apr-18 15:28N 36°29' E 034°43'19 8.9
2016-Apr-18 13:16N 36°48' E 034°38'0 0.0
2016-Apr-18 12:33N 36°48' E 034°38'0 0.0
2016-Apr-18 11:23N 36°48' E 034°38'0 0.0
2016-Apr-18 07:22N 36°48' E 034°38'  

Dump ship's entire track history